Barrett Junction (157) Station Data

Red Flag Warning: No
Fire Weather Zone: 250
SDGE Region: Mountain Empire
Lat/Lon: 32.601/-116.685

Observations

Time Wind Speed/Gust Temp(F) RH Fuel Moist Fuel Temp(F) Dewpt(F) Tmax(F) Tmin(F) Accum Precip 10-min Precip SL Press(mb)
4/26 2:50am 127 8 G 11 53° 69% - - 43° 55.7° 52.7° - - -
4/26 2:40am 145 3 G 9 54° 67% - - 44° 55.7° 53.3° - - -
4/26 2:30am 139 3 G 6 54° 68% - - 44° 55.7° 53.3° - - -
4/26 2:20am 157 3 G 6 54° 68% - - 44° 55.7° 53.3° - - -
4/26 2:10am 206 3 G 8 55° 66% - - 44° 55.7° 53.4° - - -
4/26 2:00am 92 5 G 8 54° 67% - - 44° 55.7° 53.4° - - -
4/26 1:50am 119 4 G 8 54° 68% - - 44° 55.7° 53.4° - - -
4/26 1:40am 164 1 G 3 54° 70% - - 44° 55.7° 53.4° - - -
4/26 1:30am 299 2 G 4 55° 67% - - 44° 55.7° 53.5° - - -
4/26 1:20am 100 7 G 12 55° 66% - - 44° 55.7° 53.9° - - -
4/26 1:10am 170 2 G 9 54° 68% - - 44° 55.7° 53.9° - - -
4/26 1:00am 2 3 G 7 55° 66% - - 44° 55.7° 53.9° - - -
4/26 12:50am 107 4 G 7 55° 66% - - 44° 55.6° 53.9° - - -
4/26 12:40am 122 7 G 11 55° 66% - - 44° 55.4° 53.9° - - -
4/26 12:30am 123 10 G 12 55° 66% - - 44° 55.4° 53.9° - - -
4/26 12:20am 129 10 G 13 54° 67% - - 44° 54.6° 53.9° - - -
4/26 12:10am 125 12 G 13 54° 68% - - 44° 54.5° 53.9° - - -
4/26 12:00am 124 11 G 14 54° 68% - - 44° 68.3° 54° - - -
4/25 11:50pm 126 10 G 13 55° 68% - - 44° 68.3° 54.2° - - -
4/25 11:40pm 126 10 G 12 54° 68% - - 44° 68.3° 54.2° - - -
4/25 11:30pm 125 11 G 12 55° 69% - - 45° 68.3° 54.3° - - -
4/25 11:20pm 124 8 G 10 55° 68% - - 45° 68.3° 54.7° - - -
4/25 11:10pm 126 8 G 10 55° 68% - - 45° 68.3° 55.1° - - -
4/25 11:00pm 124 9 G 11 56° 67% - - 45° 68.3° 55.5° - - -
4/25 10:50pm 125 7 G 10 56° 67% - - 45° 68.3° 55.5° - - -
4/25 10:40pm 129 7 G 9 56° 67% - - 45° 68.3° 55.5° - - -
4/25 10:30pm 127 7 G 10 56° 67% - - 46° 68.3° 55.5° - - -
4/25 10:20pm 131 4 G 7 56° 67% - - 45° 68.3° 55.5° - - -
4/25 10:10pm 141 3 G 5 57° 65% - - 45° 68.3° 55.5° - - -
4/25 10:00pm 132 2 G 4 58° 64% - - 46° 68.3° 55.5° - - -
4/25 9:50pm 111 2 G 3 58° 64% - - 46° 68.3° 55.5° - - -
4/25 9:40pm 133 2 G 3 58° 64% - - 46° 68.3° 55.5° - - -
4/25 9:30pm 57 1 G 3 58° 63% - - 46° 68.3° 55.5° - - -
4/25 9:20pm 292 3 G 7 59° 61% - - 46° 68.3° 55.5° - - -
4/25 9:10pm 257 3 G 7 59° 62% - - 46° 68.3° 55.5° - - -
4/25 9:00pm 13 2 G 6 59° 62% - - 46° 68.3° 55.5° - - -
4/25 8:50pm 240 3 G 5 59° 61% - - 46° 68.3° 55.5° - - -
4/25 8:40pm 255 3 G 5 59° 62% - - 46° 68.3° 55.5° - - -
4/25 8:30pm 272 3 G 7 59° 61% - - 46° 68.3° 55.5° - - -
4/25 8:20pm 249 6 G 9 60° 60% - - 46° 68.3° 55.5° - - -
4/25 8:10pm 250 6 G 9 60° 60% - - 46° 68.3° 55.5° - - -
4/25 8:00pm 253 6 G 9 60° 60% - - 46° 68.3° 55.5° - - -
4/25 7:50pm 257 8 G 10 60° 60% - - 46° 68.3° 55.5° - - -
4/25 7:40pm 262 7 G 11 60° 61% - - 47° 68.3° 55.5° - - -
4/25 7:30pm 270 7 G 12 61° 61% - - 47° 68.3° 55.5° - - -
4/25 7:20pm 267 7 G 12 61° 60% - - 47° 68.3° 55.5° - - -
4/25 7:10pm 262 8 G 12 61° 61% - - 47° 68.3° 55.5° - - -
4/25 7:00pm 263 9 G 13 61° 61% - - 48° 68.3° 55.5° - - -
4/25 6:50pm 261 8 G 13 61° 61% - - 48° 68.3° 55.5° - - -
4/25 6:40pm 261 9 G 13 61° 61% - - 48° 68.3° 55.5° - - -
4/25 6:30pm 262 8 G 13 61° 62% - - 48° 68.3° 55.5° - - -
4/25 6:20pm 276 6 G 11 62° 62% - - 48° 68.3° 55.5° - - -
4/25 6:10pm 274 7 G 15 62° 62% - - 48° 68.3° 55.5° - - -
4/25 6:00pm 287 10 G 16 62° 61% - - 48° 68.3° 55.5° - - -
4/25 5:50pm 293 9 G 16 63° 59% - - 48° 68.3° 55.5° - - -
4/25 5:40pm 294 9 G 14 63° 58% - - 48° 68.3° 55.5° - - -
4/25 5:30pm 294 9 G 12 63° 58% - - 48° 68.3° 55.5° - - -
4/25 5:20pm 280 10 G 16 63° 57% - - 48° 68.3° 55.5° - - -
4/25 5:10pm 281 11 G 17 63° 56% - - 48° 68.3° 55.5° - - -
4/25 5:00pm 283 11 G 19 64° 56% - - 48° 68.3° 55.5° - - -
4/25 4:50pm 285 9 G 15 64° 55% - - 48° 68.3° 55.5° - - -
4/25 4:40pm 287 10 G 16 64° 55% - - 48° 68.3° 55.5° - - -
4/25 4:30pm 284 11 G 16 65° 54% - - 48° 68.3° 55.5° - - -
4/25 4:20pm 290 11 G 15 66° 52% - - 48° 68.3° 55.5° - - -
4/25 4:10pm 284 12 G 18 66° 52% - - 48° 68.3° 55.5° - - -
4/25 4:00pm 282 12 G 18 66° 51% - - 48° 68.3° 55.5° - - -
4/25 3:50pm 267 12 G 20 66° 52% - - 47° 68.3° 55.5° - - -
4/25 3:40pm 276 12 G 18 66° 52% - - 48° 68.3° 55.5° - - -
4/25 3:30pm 288 11 G 17 66° 51% - - 47° 68.3° 55.5° - - -
4/25 3:20pm 289 11 G 15 66° 50% - - 47° 68.3° 55.5° - - -
4/25 3:10pm 282 9 G 14 66° 49% - - 47° 68.3° 55.5° - - -
4/25 3:00pm 285 10 G 16 66° 50% - - 47° 68.3° 55.5° - - -
4/25 2:50pm 285 12 G 17 66° 50% - - 47° 68.3° 55.5° - - -
4/25 2:40pm 291 11 G 18 67° 49% - - 47° 68.3° 55.5° - - -
4/25 2:30pm 282 11 G 18 67° 49% - - 47° 68.3° 55.5° - - -
4/25 2:20pm 288 11 G 20 67° 48% - - 47° 68.3° 55.5° - - -
4/25 2:10pm 271 10 G 18 67° 49% - - 47° 68.3° 55.5° - - -
4/25 2:00pm 286 11 G 18 67° 49% - - 47° 68.3° 55.5° - - -
4/25 1:50pm 292 11 G 19 67° 49% - - 47° 68.3° 55.5° - - -
4/25 1:40pm 295 11 G 18 66° 49% - - 47° 68.3° 55.5° - - -
4/25 1:30pm 285 10 G 20 67° 47% - - 46° 68.3° 55.5° - - -
4/25 1:20pm 289 10 G 18 67° 47% - - 46° 68.3° 55.5° - - -
4/25 1:10pm 286 11 G 21 67° 45% - - 45° 68.3° 55.5° - - -
4/25 1:00pm 292 10 G 17 67° 44% - - 44° 67.8° 55.5° - - -
4/25 12:50pm 305 11 G 21 67° 44% - - 44° 67.6° 55.5° - - -
4/25 12:40pm 292 9 G 20 67° 44% - - 44° 67.6° 55.5° - - -
4/25 12:30pm 276 11 G 18 67° 43% - - 44° 67.6° 55.5° - - -
4/25 12:20pm 278 10 G 19 66° 44% - - 44° 67.2° 55.5° - - -
4/25 12:10pm 286 10 G 20 66° 44% - - 44° 67.2° 55.5° - - -
4/25 12:00pm 265 6 G 17 66° 46% - - 45° 67.2° 55.5° - - -
4/25 11:50am 281 10 G 19 66° 46% - - 44° 66.3° 55.5° - - -
4/25 11:40am 293 8 G 18 66° 46% - - 45° 66.3° 55.5° - - -
4/25 11:30am 317 7 G 17 66° 47% - - 45° 66.3° 55.5° - - -
4/25 11:20am 300 10 G 15 65° 47% - - 45° 66.1° 55.5° - - -
4/25 11:10am 303 9 G 17 65° 47% - - 44° 65.3° 55.5° - - -
4/25 11:00am 312 10 G 17 65° 47% - - 44° 65.1° 55.5° - - -
4/25 10:50am 292 9 G 14 64° 50% - - 45° 65.1° 55.5° - - -
4/25 10:40am 304 10 G 18 64° 49% - - 45° 64.6° 55.5° - - -
4/25 10:30am 265 9 G 15 63° 54% - - 46° 63.6° 55.5° - - -
4/25 10:20am 258 9 G 16 62° 56% - - 46° 62.6° 55.5° - - -
4/25 10:10am 264 10 G 16 62° 58% - - 47° 62.2° 55.5° - - -
4/25 10:00am 266 10 G 16 62° 58% - - 47° 62.2° 55.5° - - -
4/25 9:50am 268 11 G 16 61° 59% - - 46° 61.7° 55.5° - - -
4/25 9:40am 266 8 G 15 61° 59% - - 47° 61.7° 55.5° - - -
4/25 9:30am 278 9 G 15 61° 59% - - 47° 61.7° 55.5° - - -
4/25 9:20am 285 7 G 12 61° 60% - - 47° 61.5° 55.5° - - -
4/25 9:10am 299 6 G 12 61° 60% - - 47° 61.5° 55.5° - - -
4/25 9:00am 300 6 G 10 60° 63% - - 47° 60.6° 55.5° - - -
4/25 8:50am 296 6 G 10 60° 65% - - 48° 60° 55.5° - - -
4/25 8:40am 300 6 G 9 59° 68% - - 48° 59.2° 55.5° - - -
4/25 8:30am 294 5 G 7 58° 69% - - 48° 58.9° 55.5° - - -
4/25 8:20am 304 4 G 8 58° 70% - - 49° 58.9° 55.5° - - -
4/25 8:10am 317 4 G 6 57° 73% - - 49° 57.8° 55.5° - - -
4/25 8:00am 304 4 G 7 57° 74% - - 49° 57.5° 55.5° - - -
4/25 7:50am 305 5 G 9 57° 74% - - 49° 57.4° 55.5° - - -
4/25 7:40am 323 5 G 10 57° 74% - - 49° 57.4° 55.5° - - -
4/25 7:30am 300 4 G 7 57° 75% - - 49° 57.4° 55.5° - - -
4/25 7:20am 301 5 G 7 56° 76% - - 49° 57.4° 55.5° - - -
4/25 7:10am 305 2 G 6 56° 76% - - 49° 57.4° 55.5° - - -
4/25 7:00am 90 0 G 1 56° 76% - - 49° 57.4° 55.5° - - -
4/25 6:50am 51 1 G 2 56° 77% - - 49° 57.4° 55.5° - - -
4/25 6:40am 42 0 G 1 56° 77% - - 49° 57.4° 55.5° - - -
4/25 6:30am 42 0 G 1 56° 77% - - 49° 57.4° 55.5° - - -
4/25 6:20am 42 0 G 0 56° 77% - - 49° 57.4° 55.5° - - -
4/25 6:10am 66 1 G 2 56° 78% - - 49° 57.4° 55.5° - - -
4/25 6:00am 99 0 G 2 56° 78% - - 49° 57.4° 55.5° - - -
4/25 5:50am 318 0 G 1 56° 78% - - 49° 57.4° 55.5° - - -
4/25 5:40am 301 1 G 2 56° 78% - - 49° 57.4° 55.5° - - -
4/25 5:30am 298 1 G 3 56° 78% - - 49° 57.4° 55.5° - - -
4/25 5:20am 303 2 G 3 56° 78% - - 49° 57.4° 55.6° - - -
4/25 5:10am 350 2 G 4 56° 78% - - 49° 57.4° 55.6° - - -
4/25 5:00am 19 2 G 4 56° 78% - - 49° 57.4° 55.6° - - -
4/25 4:50am 64 2 G 3 56° 77% - - 49° 57.4° 55.6° - - -
4/25 4:40am 32 1 G 3 56° 77% - - 49° 57.4° 55.6° - - -
4/25 4:30am 45 1 G 2 56° 77% - - 49° 57.4° 55.6° - - -
4/25 4:20am 338 3 G 6 56° 78% - - 49° 57.4° 55.6° - - -
4/25 4:10am 354 3 G 6 56° 78% - - 49° 57.4° 55.6° - - -
4/25 4:00am 49 2 G 4 56° 77% - - 49° 57.4° 55.6° - - -
4/25 3:50am 319 1 G 3 56° 75% - - 49° 57.4° 55.6° - - -
4/25 3:40am 127 3 G 4 56° 75% - - 48° 57.4° 55.6° - - -
4/25 3:30am 212 3 G 5 56° 75% - - 48° 57.4° 55.6° - - -
4/25 3:20am 218 5 G 9 57° 73% - - 48° 57.4° 55.6° - - -
4/25 3:10am 240 4 G 8 56° 75% - - 48° 57.4° 55.6° - - -
4/25 3:00am 323 1 G 4 56° 77% - - 49° 57.4° 55.6° - - -
4/25 2:50am 290 3 G 5 56° 77% - - 49° 57.4° 55.6° - - -
4/25 2:40am 301 3 G 5 56° 76% - - 49° 57.4° 55.8° - - -
4/25 2:30am 323 2 G 5 56° 75% - - 48° 57.4° 56.1° - - -
4/25 2:20am 248 3 G 7 57° 73% - - 48° 57.4° 56.2° - - -
4/25 2:10am 258 7 G 13 57° 73% - - 48° 57.4° 56.2° - - -
4/25 2:00am 268 6 G 10 57° 73% - - 48° 57.4° 56.2° - - -
4/25 1:50am 286 3 G 6 56° 74% - - 48° 57.4° 56.2° - - -
4/25 1:40am 315 2 G 4 57° 73% - - 48° 57.4° 56.3° - - -
4/25 1:30am 73 2 G 5 57° 73% - - 48° 57.4° 56.5° - - -
4/25 1:20am 286 2 G 4 57° 71% - - 48° 57.4° 56.5° - - -
4/25 1:10am 192 2 G 5 57° 72% - - 48° 57.4° 56.5° - - -
4/25 1:00am 236 2 G 6 57° 73% - - 48° 57.4° 56.5° - - -
4/25 12:50am 195 2 G 7 57° 72% - - 48° 57.4° 56.5° - - -
4/25 12:40am 82 4 G 8 57° 72% - - 48° 57.4° 56.5° - - -
4/25 12:30am 101 3 G 8 57° 70% - - 48° 57.4° 56.5° - - -
4/25 12:20am 177 3 G 8 57° 70% - - 47° 57.4° 56.5° - - -
4/25 12:10am 154 4 G 9 57° 72% - - 48° 57.1° 56.5° - - -
4/25 12:00am 224 2 G 5 57° 72% - - 48° 70.5° 51.8° - - -
4/24 11:50pm 240 2 G 7 57° 72% - - 48° 70.5° 51.8° - - -
4/24 11:40pm 274 3 G 5 56° 73% - - 48° 70.5° 51.8° - - -
4/24 11:30pm 292 2 G 5 56° 74% - - 48° 70.5° 51.8° - - -
4/24 11:20pm 290 4 G 6 56° 74% - - 48° 70.5° 51.8° - - -
4/24 11:10pm 256 7 G 14 56° 73% - - 48° 70.5° 51.8° - - -
4/24 11:00pm 251 8 G 13 56° 72% - - 48° 70.5° 51.8° - - -
4/24 10:50pm 262 7 G 10 56° 73% - - 48° 70.5° 51.8° - - -
4/24 10:40pm 255 5 G 10 57° 73% - - 48° 70.5° 51.8° - - -
4/24 10:30pm 156 1 G 3 57° 74% - - 49° 70.5° 51.8° - - -
4/24 10:20pm 105 4 G 6 57° 74% - - 49° 70.5° 51.8° - - -
4/24 10:10pm 112 6 G 9 57° 75% - - 49° 70.5° 51.8° - - -
4/24 10:00pm 123 5 G 8 57° 74% - - 48° 70.5° 51.8° - - -
4/24 9:50pm 205 3 G 5 57° 73% - - 48° 70.5° 51.8° - - -
4/24 9:40pm 277 6 G 9 57° 72% - - 48° 70.5° 51.8° - - -
4/24 9:30pm 246 7 G 12 57° 72% - - 48° 70.5° 51.8° - - -
4/24 9:20pm 235 7 G 11 58° 71% - - 49° 70.5° 51.8° - - -
4/24 9:10pm 229 7 G 12 58° 72% - - 49° 70.5° 51.8° - - -
4/24 9:00pm 266 5 G 9 58° 73% - - 50° 70.5° 51.8° - - -
4/24 8:50pm 274 7 G 11 58° 74% - - 50° 70.5° 51.8° - - -
4/24 8:40pm 272 6 G 11 58° 75% - - 50° 70.5° 51.8° - - -
4/24 8:30pm 266 7 G 10 58° 75% - - 50° 70.5° 51.8° - - -
4/24 8:20pm 267 9 G 13 58° 75% - - 50° 70.5° 51.8° - - -
4/24 8:10pm 276 8 G 11 58° 74% - - 50° 70.5° 51.8° - - -
4/24 8:00pm 283 8 G 14 59° 74% - - 50° 70.5° 51.8° - - -
4/24 7:50pm 290 8 G 13 59° 73% - - 50° 70.5° 51.8° - - -
4/24 7:40pm 280 7 G 11 59° 72% - - 50° 70.5° 51.8° - - -
4/24 7:30pm 265 8 G 11 60° 71% - - 50° 70.5° 51.8° - - -
4/24 7:20pm 258 9 G 12 60° 70% - - 50° 70.5° 51.8° - - -
4/24 7:10pm 258 9 G 13 60° 69% - - 50° 70.5° 51.8° - - -
4/24 7:00pm 261 10 G 15 61° 67% - - 50° 70.5° 51.8° - - -
4/24 6:50pm 268 10 G 15 62° 65% - - 50° 70.5° 51.8° - - -
4/24 6:40pm 268 10 G 14 62° 63% - - 50° 70.5° 51.8° - - -
4/24 6:30pm 280 9 G 13 63° 62% - - 50° 70.5° 51.8° - - -
4/24 6:20pm 274 8 G 13 63° 59% - - 49° 70.5° 51.8° - - -
4/24 6:10pm 265 9 G 13 64° 58% - - 49° 70.5° 51.8° - - -
4/24 6:00pm 264 10 G 16 64° 56% - - 48° 70.5° 51.8° - - -